| Date | Time | Temp. (oF) | Dew Point (oF) | Rel. Hum. (%) | Press. (in.) | Wind Dir. | Wind Speed (mph) | Hourly Rainfall (in.) |
|
|---|---|---|---|---|---|---|---|---|---|
| 1 | 01/02 | 00:00 | 35 | 35 | 100 | 29.74 | NNW | 4 | 0.00 |
| 2 | 01/01 | 23:00 | 35 | 35 | 100 | 29.70 | N | 7 | 0.01 |
| 3 | 01/01 | 22:00 | 35 | 35 | 100 | 29.67 | N | 11 | 0.00 |
| 4 | 01/01 | 21:00 | 36 | 36 | 100 | 29.65 | N | 8 | 0.05 |
| 5 | 01/01 | 20:00 | 38 | 37 | 100 | 29.65 | N | 9 | 0.01 |
| 6 | 01/01 | 19:00 | 39 | 39 | 100 | 29.64 | NE | 11 | 0.00 |
| 7 | 01/01 | 18:00 | 40 | 40 | 100 | 29.65 | NE | 4 | 0.02 |
| 8 | 01/01 | 17:00 | 41 | 41 | 100 | 29.64 | ENE | 8 | 0.03 |
| 9 | 01/01 | 16:00 | 41 | 41 | 100 | 29.67 | NE | 10 | 0.00 |
| 10 | 01/01 | 15:00 | 42 | 41 | 100 | 29.71 | NE | 5 | 0.01 |
| 11 | 01/01 | 14:00 | 41 | 41 | 100 | 29.75 | ENE | 5 | 0.08 |
| 12 | 01/01 | 13:00 | 41 | 41 | 100 | 29.78 | NE | 10 | 0.17 |
| 13 | 01/01 | 12:00 | 41 | 41 | 100 | 29.82 | E | 11 | 0.01 |
| 14 | 01/01 | 11:00 | 39 | 39 | 100 | 29.88 | NNE | 5 | 0.05 |
| 15 | 01/01 | 10:00 | 39 | 39 | 100 | 29.93 | E | 4 | 0.06 |
| 16 | 01/01 | 09:00 | 37 | 36 | 100 | 29.96 | NE | 3 | 0.07 |
| 17 | 01/01 | 08:00 | 35 | 35 | 100 | 29.98 | N | 3 | 0.02 |
| 18 | 01/01 | 07:00 | 35 | 35 | 100 | 29.99 | SSE | 2 | 0.00 |
| 19 | 01/01 | 06:00 | 35 | 35 | 100 | 29.99 | NW | 0 | 0.00 |
| 20 | 01/01 | 05:00 | 35 | 35 | 100 | 30.00 | WNW | 3 | 0.00 |
| 21 | 01/01 | 04:00 | 34 | 33 | 100 | 29.96 | N | 8 | 0.00 |
| 22 | 01/01 | 03:00 | 34 | 33 | 100 | 30.04 | SW | 0 | 0.00 |
| 23 | 01/01 | 02:00 | 34 | 33 | 100 | 30.03 | E | 1 | 0.00 |
| 24 | 01/01 | 01:00 | 34 | 33 | 100 | 30.00 | E | 2 | 0.00 |